Time;durP1;ratioP1;P1;durP2;ratioP2;P2;SDS_P1;SDS_P2;PMS_P1;PMS_P2;Temp;Humidity;BMP_temperature;BMP_pressure;BME280_temperature;BME280_humidity;BME280_pressure;Samples;Min_cycle;Max_cycle;Signal;HPM_P1;HPM_P2
2022/11/19 00:00:46;;;;;;;4.55;4.15;;;11.60;99.90;;;;;;4989702;28;20574;-74
2022/11/19 00:03:16;;;;;;;7.13;4.82;;;11.60;99.90;;;;;;4997506;28;20756;-75
2022/11/19 00:05:44;;;;;;;5.90;4.68;;;11.50;99.90;;;;;;5007197;28;20201;-75
2022/11/19 00:08:12;;;;;;;5.90;5.30;;;11.50;99.90;;;;;;5008713;28;20289;-75
2022/11/19 00:10:38;;;;;;;9.38;7.72;;;11.50;99.90;;;;;;4992313;28;20163;-75
2022/11/19 00:13:06;;;;;;;9.02;7.15;;;11.50;99.90;;;;;;4993490;28;20533;-75
2022/11/19 00:15:33;;;;;;;7.50;5.68;;;11.50;99.90;;;;;;4993419;28;20175;-76
2022/11/19 00:18:00;;;;;;;7.38;6.57;;;11.50;99.90;;;;;;5008753;28;20371;-75
2022/11/19 00:20:27;;;;;;;8.38;5.90;;;11.40;99.90;;;;;;4993316;28;20186;-75
2022/11/19 00:22:55;;;;;;;6.78;4.90;;;11.40;99.90;;;;;;4993419;28;20182;-75
2022/11/19 00:25:23;;;;;;;7.30;5.47;;;11.40;99.90;;;;;;4993136;28;20252;-75
2022/11/19 00:27:49;;;;;;;6.90;6.05;;;11.40;99.90;;;;;;4993509;28;20209;-74
2022/11/19 00:30:15;;;;;;;6.70;4.20;;;11.40;99.90;;;;;;4993389;28;20222;-75
2022/11/19 00:32:41;;;;;;;7.65;5.65;;;11.40;99.90;;;;;;4992053;28;20562;-75
2022/11/19 00:35:07;;;;;;;8.10;5.80;;;11.40;99.90;;;;;;4993360;28;20241;-75
2022/11/19 00:37:33;;;;;;;6.10;5.30;;;11.40;99.90;;;;;;4993272;28;21161;-75
2022/11/19 00:40:00;;;;;;;6.13;5.53;;;11.40;99.90;;;;;;4993303;28;20260;-75
2022/11/19 00:42:26;;;;;;;6.20;5.60;;;11.40;99.90;;;;;;4992903;28;21106;-75
2022/11/19 00:44:52;;;;;;;5.97;4.25;;;11.40;99.90;;;;;;5009261;28;20583;-76
2022/11/19 00:47:18;;;;;;;7.60;5.32;;;11.40;99.90;;;;;;5012426;28;20732;-75
2022/11/19 00:49:44;;;;;;;4.47;3.77;;;11.40;99.90;;;;;;5011473;28;20163;-75
2022/11/19 00:52:10;;;;;;;6.15;3.85;;;11.40;99.90;;;;;;5010994;28;20174;-75
2022/11/19 00:54:36;;;;;;;5.25;4.75;;;11.40;99.90;;;;;;5012511;28;20186;-75
2022/11/19 00:57:02;;;;;;;5.80;4.33;;;11.40;99.90;;;;;;5012201;28;20201;-75
2022/11/19 00:59:28;;;;;;;4.40;3.97;;;11.40;99.90;;;;;;5012453;28;20170;-75
2022/11/19 01:01:53;;;;;;;4.93;4.13;;;11.40;99.90;;;;;;5012187;28;20257;-75
2022/11/19 01:04:19;;;;;;;6.03;4.83;;;11.40;99.90;;;;;;5012502;28;20631;-75
2022/11/19 01:06:45;;;;;;;5.97;5.07;;;11.40;99.90;;;;;;5011060;28;20806;-75
2022/11/19 01:09:10;;;;;;;5.30;4.80;;;11.50;99.90;;;;;;5015506;28;20171;-75
2022/11/19 01:11:37;;;;;;;4.87;4.07;;;11.50;99.90;;;;;;5012229;28;20175;-75
2022/11/19 01:14:04;;;;;;;6.15;5.18;;;11.50;99.90;;;;;;4994393;28;20198;-75
2022/11/19 01:16:35;;;;;;;5.95;5.45;;;11.50;99.90;;;;;;5011138;28;20244;-75
2022/11/19 01:19:02;;;;;;;8.98;5.72;;;11.50;99.90;;;;;;5011685;28;20170;-75
2022/11/19 01:21:30;;;;;;;5.80;5.20;;;11.50;99.90;;;;;;5012092;28;20159;-75
2022/11/19 01:23:57;;;;;;;5.78;5.28;;;11.50;99.90;;;;;;5011441;28;20191;-75
2022/11/19 01:26:23;;;;;;;6.10;5.30;;;11.60;99.90;;;;;;5011889;28;20198;-75
2022/11/19 01:28:49;;;;;;;6.97;4.65;;;11.60;99.90;;;;;;5011653;28;20261;-75
2022/11/19 01:31:21;;;;;;;4.95;4.35;;;11.70;99.90;;;;;;4994316;28;20242;-75
2022/11/19 01:33:48;;;;;;;6.30;5.35;;;11.70;99.90;;;;;;5011436;28;20178;-75
2022/11/19 01:36:16;;;;;;;4.82;4.32;;;11.70;99.90;;;;;;5011892;28;20170;-75
2022/11/19 01:38:42;;;;;;;4.72;4.32;;;11.70;99.90;;;;;;5010247;28;20174;-75
2022/11/19 01:41:08;;;;;;;5.20;4.63;;;11.70;99.90;;;;;;4993976;28;20261;-75
2022/11/19 01:43:45;;;;;;;6.90;6.20;;;11.70;99.90;;;;;;5011098;28;20194;-75
2022/11/19 01:46:14;;;;;;;5.70;5.10;;;11.70;99.90;;;;;;5010271;28;20224;-75
2022/11/19 01:48:55;;;;;;;8.35;5.32;;;11.80;99.90;;;;;;5011445;28;20540;-75
2022/11/19 01:51:39;;;;;;;5.47;4.78;;;11.80;99.90;;;;;;5010313;28;20178;-76
2022/11/19 01:54:28;;;;;;;6.97;4.72;;;11.80;99.90;;;;;;5010842;28;20674;-76
2022/11/19 01:56:57;;;;;;;5.50;4.47;;;11.80;99.90;;;;;;4999423;28;20587;-76
2022/11/19 01:59:25;;;;;;;6.07;5.35;;;11.90;99.90;;;;;;5011089;28;20166;-76
2022/11/19 02:01:50;;;;;;;6.53;5.53;;;11.90;99.90;;;;;;5011174;28;20240;-76
2022/11/19 02:04:19;;;;;;;8.10;6.67;;;11.90;99.90;;;;;;5010826;28;20190;-75
2022/11/19 02:06:46;;;;;;;7.03;5.72;;;11.90;99.90;;;;;;5010983;28;20256;-75
2022/11/19 02:09:12;;;;;;;6.15;4.60;;;11.90;99.90;;;;;;5011204;28;20170;-75
2022/11/19 02:11:59;;;;;;;5.93;5.33;;;11.90;99.90;;;;;;5010798;28;20228;-75
2022/11/19 02:14:50;;;;;;;5.40;4.90;;;11.80;99.90;;;;;;5010919;28;20582;-76
2022/11/19 02:17:25;;;;;;;5.35;4.85;;;11.80;99.90;;;;;;5010985;28;20635;-75
2022/11/19 02:20:04;;;;;;;6.03;5.30;;;11.80;99.90;;;;;;5011004;28;20178;-76
2022/11/19 02:22:54;;;;;;;5.70;5.20;;;11.80;99.90;;;;;;5010646;28;20174;-75
2022/11/19 02:25:29;;;;;;;6.15;5.63;;;11.80;99.90;;;;;;5010659;28;20171;-75
2022/11/19 02:28:15;;;;;;;8.68;5.80;;;11.80;99.90;;;;;;5009681;28;20214;-75
2022/11/19 02:30:47;;;;;;;7.07;6.13;;;11.90;99.90;;;;;;4996042;28;20581;-75
2022/11/19 02:33:27;;;;;;;7.75;6.43;;;11.90;99.90;;;;;;5010557;28;20245;-75
2022/11/19 02:36:08;;;;;;;5.70;5.20;;;11.90;99.90;;;;;;4993109;28;20201;-76
2022/11/19 02:38:44;;;;;;;7.97;5.97;;;11.90;99.90;;;;;;5009520;28;20166;-75
2022/11/19 02:41:35;;;;;;;5.30;4.75;;;11.90;99.90;;;;;;5010557;28;20197;-75
2022/11/19 02:47:22;;;;;;;7.03;4.95;;;11.90;99.90;;;;;;5013866;28;20217;-75
2022/11/19 02:49:52;;;;;;;5.72;5.22;;;12.00;99.90;;;;;;5015049;28;20250;-75
2022/11/19 02:52:18;;;;;;;6.30;5.22;;;12.00;99.90;;;;;;4998702;28;20718;-76
2022/11/19 02:54:44;;;;;;;5.60;5.00;;;11.90;99.90;;;;;;5017396;28;20195;-75
2022/11/19 02:57:11;;;;;;;5.50;5.00;;;11.90;99.90;;;;;;5016444;28;20588;-75
2022/11/19 03:05:27;;;;;;;6.45;5.85;;;11.90;99.90;;;;;;5010183;28;20517;-75
2022/11/19 03:07:53;;;;;;;5.63;5.10;;;12.00;99.90;;;;;;5010774;28;20190;-75
2022/11/19 03:10:22;;;;;;;5.50;5.00;;;12.00;99.90;;;;;;5010756;28;20649;-75
2022/11/19 03:18:55;;;;;;;2.40;1.83;;;11.70;99.90;;;;;;5009961;28;20201;-76
2022/11/19 03:21:32;;;;;;;2.22;1.58;;;11.60;99.90;;;;;;5010189;28;20186;-76
2022/11/19 03:24:03;;;;;;;2.10;1.55;;;11.50;99.90;;;;;;5009610;28;20181;-76
2022/11/19 03:26:44;;;;;;;2.20;1.55;;;11.40;99.90;;;;;;5010135;28;20696;-76
2022/11/19 03:29:12;;;;;;;2.30;1.27;;;11.30;99.90;;;;;;4992133;28;20646;-75
2022/11/19 03:31:44;;;;;;;1.63;1.00;;;11.20;99.90;;;;;;4992586;28;20646;-75
2022/11/19 03:34:15;;;;;;;2.10;1.30;;;11.10;99.90;;;;;;5009967;28;20601;-75
2022/11/19 03:36:42;;;;;;;2.35;1.17;;;10.90;99.90;;;;;;5010149;28;20220;-75
2022/11/19 03:39:14;;;;;;;1.50;1.00;;;10.90;99.90;;;;;;5017209;28;20171;-75
2022/11/19 03:41:42;;;;;;;1.90;1.30;;;10.70;99.90;;;;;;5010448;28;20537;-74
2022/11/19 03:44:37;;;;;;;1.95;1.35;;;10.60;99.90;;;;;;5013030;28;20348;-75
2022/11/19 03:47:14;;;;;;;2.08;1.20;;;10.40;99.90;;;;;;5014706;28;20194;-75
2022/11/19 03:49:43;;;;;;;1.80;1.20;;;10.40;99.90;;;;;;5012744;28;20170;-75
2022/11/19 03:52:18;;;;;;;1.50;1.10;;;10.30;99.90;;;;;;5013851;28;20166;-74
2022/11/19 03:54:44;;;;;;;1.60;0.90;;;10.30;99.90;;;;;;5013429;28;20185;-75
2022/11/19 03:57:13;;;;;;;4.30;1.25;;;10.20;99.90;;;;;;4996099;28;20178;-74
2022/11/19 03:59:39;;;;;;;1.98;1.20;;;10.20;99.90;;;;;;5013541;28;20193;-74
2022/11/19 04:02:10;;;;;;;1.90;1.10;;;10.20;99.90;;;;;;5013238;28;20178;-75
2022/11/19 04:04:37;;;;;;;4.20;1.10;;;10.10;99.90;;;;;;5013518;28;20225;-75
2022/11/19 04:07:20;;;;;;;3.40;0.82;;;10.00;99.90;;;;;;4995640;28;20198;-75
2022/11/19 04:09:47;;;;;;;1.40;0.70;;;9.90;99.90;;;;;;5013602;28;20177;-74
2022/11/19 04:12:22;;;;;;;1.50;0.80;;;9.70;99.90;;;;;;5012690;28;20212;-74
2022/11/19 04:14:48;;;;;;;1.50;0.90;;;9.60;99.90;;;;;;5013267;28;20555;-74
2022/11/19 04:17:15;;;;;;;2.05;0.80;;;9.50;99.90;;;;;;5013036;28;20170;-74
2022/11/19 04:19:41;;;;;;;1.35;0.70;;;9.40;99.90;;;;;;5013244;28;20643;-74
2022/11/19 04:22:07;;;;;;;1.30;0.70;;;9.30;99.90;;;;;;5012676;28;20190;-74
2022/11/19 04:24:32;;;;;;;1.98;0.70;;;9.10;99.90;;;;;;5012997;28;20607;-74
2022/11/19 04:26:58;;;;;;;1.33;0.80;;;9.10;99.90;;;;;;4995167;28;20194;-74
2022/11/19 04:29:24;;;;;;;1.30;0.77;;;9.00;99.90;;;;;;5013083;28;20198;-74
2022/11/19 04:31:49;;;;;;;1.30;0.70;;;8.90;99.90;;;;;;5011572;28;20260;-74
2022/11/19 04:34:15;;;;;;;1.30;0.60;;;8.80;99.90;;;;;;5012671;28;20190;-74
2022/11/19 04:36:41;;;;;;;1.30;0.77;;;8.70;99.90;;;;;;5012671;28;21129;-74
2022/11/19 04:39:08;;;;;;;1.33;0.67;;;8.50;99.90;;;;;;5012905;28;20221;-74
2022/11/19 04:41:35;;;;;;;1.30;0.60;;;8.40;99.90;;;;;;5012622;28;20993;-74
2022/11/19 04:44:01;;;;;;;1.30;0.70;;;8.30;99.90;;;;;;5012316;28;20238;-74
2022/11/19 04:46:27;;;;;;;1.50;0.70;;;8.20;99.90;;;;;;5012631;28;20175;-74
2022/11/19 04:48:53;;;;;;;1.47;0.80;;;8.20;99.90;;;;;;5012529;28;20209;-74
2022/11/19 04:51:18;;;;;;;1.50;0.70;;;8.10;99.90;;;;;;5012606;28;20177;-74
2022/11/19 04:53:44;;;;;;;1.40;0.80;;;8.00;99.90;;;;;;5011760;28;20210;-74
2022/11/19 04:56:10;;;;;;;1.50;0.80;;;8.00;99.90;;;;;;5012596;28;20209;-74
2022/11/19 04:58:36;;;;;;;1.63;1.03;;;8.00;99.90;;;;;;5010990;28;20198;-74
2022/11/19 05:01:02;;;;;;;1.50;0.90;;;7.90;99.90;;;;;;5012991;28;20252;-73
2022/11/19 05:03:28;;;;;;;1.60;0.98;;;7.90;99.90;;;;;;5011939;28;20178;-73
2022/11/19 05:05:54;;;;;;;1.57;1.00;;;7.90;99.90;;;;;;5006279;28;20238;-73
2022/11/19 05:08:20;;;;;;;1.50;0.90;;;7.90;99.90;;;;;;4999561;28;20694;-73
2022/11/19 05:10:46;;;;;;;1.92;1.25;;;7.90;99.90;;;;;;4994546;28;20224;-73
2022/11/19 05:13:12;;;;;;;2.13;1.20;;;7.90;99.90;;;;;;4984398;28;20226;-73
2022/11/19 05:15:38;;;;;;;2.95;1.88;;;7.90;99.90;;;;;;4994030;28;20815;-73
2022/11/19 05:18:04;;;;;;;2.30;1.60;;;7.80;99.90;;;;;;5012212;28;20185;-73
2022/11/19 05:20:30;;;;;;;2.08;1.30;;;7.70;99.90;;;;;;4987522;28;20665;-73
2022/11/19 05:22:56;;;;;;;2.63;1.60;;;7.60;99.90;;;;;;4996270;28;20167;-73
2022/11/19 05:25:21;;;;;;;2.43;2.00;;;7.50;99.90;;;;;;5011772;28;20181;-73
2022/11/19 05:27:47;;;;;;;2.70;2.23;;;7.50;99.90;;;;;;4994419;28;20979;-73
2022/11/19 05:30:13;;;;;;;2.33;1.73;;;7.40;99.90;;;;;;5010420;28;20162;-73
2022/11/19 05:32:39;;;;;;;2.10;1.55;;;7.40;99.90;;;;;;5011650;28;20175;-73
2022/11/19 05:35:06;;;;;;;2.13;1.77;;;7.40;99.90;;;;;;5011635;28;20272;-73
2022/11/19 05:37:31;;;;;;;2.35;1.60;;;7.40;99.90;;;;;;5011956;28;20719;-73
2022/11/19 05:39:57;;;;;;;2.50;2.20;;;7.40;99.90;;;;;;5011531;28;20162;-72
2022/11/19 05:42:23;;;;;;;2.67;1.97;;;7.30;99.90;;;;;;5011502;28;20162;-73
2022/11/19 05:44:48;;;;;;;3.87;2.70;;;7.30;99.90;;;;;;5011265;28;20194;-73
2022/11/19 05:47:15;;;;;;;2.80;2.57;;;7.30;99.90;;;;;;4993939;28;20622;-73
2022/11/19 05:49:41;;;;;;;3.60;2.38;;;7.30;99.90;;;;;;5011615;28;20505;-74
2022/11/19 05:52:07;;;;;;;3.50;2.90;;;7.30;99.90;;;;;;5011111;28;20173;-73
2022/11/19 05:54:32;;;;;;;3.27;2.97;;;7.30;99.90;;;;;;4994034;28;20190;-73
2022/11/19 05:56:58;;;;;;;4.13;3.77;;;7.30;99.90;;;;;;5011265;28;20187;-73
2022/11/19 05:59:24;;;;;;;4.10;3.53;;;7.20;99.90;;;;;;5011515;28;20167;-73
2022/11/19 06:01:50;;;;;;;5.03;4.20;;;7.30;99.90;;;;;;5011036;28;20209;-73
2022/11/19 06:04:15;;;;;;;4.07;3.67;;;7.20;99.90;;;;;;5011020;28;20207;-72
2022/11/19 06:06:41;;;;;;;4.23;3.83;;;7.20;99.90;;;;;;5009918;28;20616;-74
2022/11/19 06:09:07;;;;;;;4.87;4.17;;;7.20;99.90;;;;;;5011635;28;20174;-74
2022/11/19 06:11:49;;;;;;;4.97;3.90;;;7.10;99.90;;;;;;4993510;28;20541;-74
2022/11/19 06:14:20;;;;;;;4.00;3.60;;;7.00;99.90;;;;;;5010840;28;20286;-71
2022/11/19 06:16:47;;;;;;;5.65;4.80;;;7.00;99.90;;;;;;5010881;28;20249;-72
2022/11/19 06:19:13;;;;;;;5.25;4.75;;;7.00;99.90;;;;;;5011157;28;20261;-73
2022/11/19 06:21:39;;;;;;;6.40;5.30;;;7.00;99.90;;;;;;5010657;28;20277;-72
2022/11/19 06:24:05;;;;;;;7.30;5.60;;;7.00;99.90;;;;;;5010626;28;20589;-72
2022/11/19 06:26:31;;;;;;;6.40;5.65;;;7.00;99.90;;;;;;5010490;28;20174;-72
2022/11/19 06:28:57;;;;;;;6.10;5.40;;;7.00;99.90;;;;;;5010906;28;20224;-72
2022/11/19 06:31:23;;;;;;;8.50;7.70;;;6.90;99.90;;;;;;5010756;28;20557;-72
2022/11/19 06:33:52;;;;;;;9.55;8.40;;;6.90;99.90;;;;;;5010542;28;20241;-72
2022/11/19 06:36:18;;;;;;;9.10;8.20;;;6.70;99.90;;;;;;5010566;28;20176;-72
2022/11/19 06:38:44;;;;;;;8.38;7.57;;;6.60;99.90;;;;;;5010824;28;20174;-71
2022/11/19 06:41:10;;;;;;;9.97;8.97;;;6.60;99.90;;;;;;4993065;28;20170;-71
2022/11/19 06:43:35;;;;;;;10.00;9.00;;;6.50;99.90;;;;;;5010099;28;20659;-71
2022/11/19 06:46:01;;;;;;;7.20;6.50;;;6.40;99.90;;;;;;5010628;28;20229;-71
2022/11/19 06:48:27;;;;;;;9.43;8.53;;;6.40;99.90;;;;;;5010177;28;20609;-72
2022/11/19 06:50:53;;;;;;;8.10;7.30;;;6.40;99.90;;;;;;5010455;28;20572;-72
2022/11/19 06:53:18;;;;;;;13.80;11.07;;;6.40;99.90;;;;;;4992443;28;20742;-72
2022/11/19 06:55:44;;;;;;;9.87;8.87;;;6.30;99.90;;;;;;5010401;28;20190;-72
2022/11/19 06:58:10;;;;;;;10.90;9.70;;;6.30;99.90;;;;;;5010227;28;20185;-72
2022/11/19 07:00:36;;;;;;;10.63;9.53;;;6.30;99.90;;;;;;5008761;28;20170;-72
2022/11/19 07:03:02;;;;;;;10.10;9.00;;;6.30;99.90;;;;;;4990339;28;20167;-72
2022/11/19 07:05:28;;;;;;;9.13;8.20;;;6.30;99.90;;;;;;4990578;28;20179;-72
2022/11/19 07:07:54;;;;;;;8.27;7.40;;;6.40;99.90;;;;;;4990547;28;20852;-72
2022/11/19 07:10:19;;;;;;;11.10;10.00;;;6.40;99.90;;;;;;4990548;28;21130;-72
2022/11/19 07:12:45;;;;;;;11.63;10.40;;;6.40;99.90;;;;;;4990681;28;20570;-72
2022/11/19 07:15:11;;;;;;;10.03;9.03;;;6.40;99.90;;;;;;4990107;28;21181;-72
2022/11/19 07:17:37;;;;;;;11.13;9.93;;;6.40;99.90;;;;;;4990228;28;20171;-72
2022/11/19 07:20:06;;;;;;;9.97;8.97;;;6.40;99.90;;;;;;4990242;28;20587;-73
2022/11/19 07:22:32;;;;;;;9.48;8.50;;;6.40;99.90;;;;;;4956810;28;20198;-73
2022/11/19 07:24:58;;;;;;;10.20;9.20;;;6.50;99.90;;;;;;4990141;28;20558;-73
2022/11/19 07:27:24;;;;;;;12.37;10.90;;;6.40;99.90;;;;;;4990411;28;20199;-73
2022/11/19 07:29:49;;;;;;;11.17;9.97;;;6.40;99.90;;;;;;4990193;28;20181;-73
2022/11/19 07:32:15;;;;;;;11.93;10.70;;;6.50;99.90;;;;;;4990209;28;20206;-73
2022/11/19 07:34:41;;;;;;;12.50;10.53;;;6.50;99.90;;;;;;4956558;28;20722;-73
2022/11/19 07:37:07;;;;;;;10.83;9.73;;;6.50;99.90;;;;;;4990361;28;20171;-74
2022/11/19 07:39:33;;;;;;;12.80;10.40;;;6.50;99.90;;;;;;4990525;28;20210;-73
2022/11/19 07:44:50;;;;;;;12.95;11.50;;;6.40;99.90;;;;;;4972878;28;20211;-73
2022/11/19 07:47:16;;;;;;;12.23;11.00;;;6.40;99.90;;;;;;4969490;28;20258;-73
2022/11/19 07:49:42;;;;;;;12.50;11.20;;;6.40;99.90;;;;;;4971001;28;20164;-73
2022/11/19 07:52:08;;;;;;;12.30;10.17;;;6.40;99.90;;;;;;4953202;28;20172;-72
2022/11/19 07:54:33;;;;;;;13.60;12.17;;;6.40;99.90;;;;;;4953474;28;20191;-73
2022/11/19 07:56:59;;;;;;;14.30;11.27;;;6.40;99.90;;;;;;4970537;28;20172;-73
2022/11/19 07:59:25;;;;;;;13.07;11.57;;;6.40;99.90;;;;;;4970706;28;20176;-73
2022/11/19 08:01:53;;;;;;;9.63;8.73;;;6.40;99.90;;;;;;4970194;28;20570;-73
2022/11/19 08:04:20;;;;;;;13.52;12.15;;;6.40;99.90;;;;;;4969212;28;20227;-73
2022/11/19 08:06:46;;;;;;;12.15;10.73;;;6.30;99.90;;;;;;4953075;28;20195;-73
2022/11/19 08:09:11;;;;;;;14.03;12.47;;;6.40;99.90;;;;;;4970665;28;20651;-73
2022/11/19 08:11:39;;;;;;;13.00;10.60;;;6.40;99.90;;;;;;4953078;28;21103;-78
2022/11/19 08:14:05;;;;;;;11.27;9.90;;;6.40;99.90;;;;;;4970827;28;20226;-74
2022/11/19 08:19:16;;;;;;;11.98;10.77;;;6.40;99.90;;;;;;4970437;28;20176;-73
2022/11/19 08:21:45;;;;;;;13.53;12.13;;;6.50;99.90;;;;;;4970363;28;20194;-74
2022/11/19 08:24:11;;;;;;;13.65;12.35;;;6.50;99.90;;;;;;4969857;28;20680;-75
2022/11/19 08:26:38;;;;;;;13.38;11.68;;;6.40;99.90;;;;;;4952448;28;20172;-75
2022/11/19 08:29:04;;;;;;;11.10;9.55;;;6.40;99.90;;;;;;4970864;28;20168;-75
2022/11/19 08:31:30;;;;;;;11.35;10.25;;;6.40;99.90;;;;;;4973628;28;20171;-76
2022/11/19 08:33:56;;;;;;;12.40;11.10;;;6.50;99.90;;;;;;4972812;28;20900;-76
2022/11/19 08:36:22;;;;;;;11.53;10.17;;;6.50;99.90;;;;;;4973667;28;20877;-75
2022/11/19 08:38:48;;;;;;;13.30;11.90;;;6.60;99.90;;;;;;4973843;28;20175;-75
2022/11/19 08:44:01;;;;;;;11.90;10.63;;;6.60;99.90;;;;;;4982346;28;20704;-75
2022/11/19 08:46:27;;;;;;;13.88;11.68;;;6.50;99.90;;;;;;4987825;28;20167;-75
2022/11/19 08:48:52;;;;;;;12.23;10.13;;;6.50;99.90;;;;;;4993045;28;20190;-76
2022/11/19 08:51:18;;;;;;;13.23;10.73;;;6.60;99.90;;;;;;4993058;28;20581;-75
2022/11/19 08:53:44;;;;;;;12.33;10.97;;;6.60;99.90;;;;;;4994618;28;20277;-75
2022/11/19 08:56:10;;;;;;;12.50;10.00;;;6.60;99.90;;;;;;4993892;28;20558;-75
2022/11/19 08:58:36;;;;;;;11.20;9.97;;;6.60;99.90;;;;;;4993664;28;20171;-75
2022/11/19 09:01:10;;;;;;;11.80;10.60;;;6.70;99.90;;;;;;4996645;28;21110;-75
2022/11/19 09:03:35;;;;;;;10.73;9.60;;;6.70;99.90;;;;;;4993894;28;20322;-75
2022/11/19 09:06:01;;;;;;;10.97;9.87;;;6.70;99.90;;;;;;4992749;28;20593;-75
2022/11/19 09:08:28;;;;;;;11.43;9.77;;;6.70;99.90;;;;;;4992846;28;20606;-75
2022/11/19 09:10:54;;;;;;;11.35;10.15;;;6.70;99.90;;;;;;4975121;28;20620;-75
2022/11/19 09:13:20;;;;;;;10.13;9.13;;;6.70;99.90;;;;;;4992804;28;20194;-75
2022/11/19 09:15:50;;;;;;;10.97;9.80;;;6.60;99.90;;;;;;4992938;28;20571;-76
2022/11/19 09:18:16;;;;;;;11.48;10.25;;;6.60;99.90;;;;;;4993353;28;20561;-73
2022/11/19 09:20:43;;;;;;;10.30;9.30;;;6.70;99.90;;;;;;4975942;28;20167;-74
2022/11/19 09:23:08;;;;;;;10.43;9.32;;;6.70;99.90;;;;;;4992517;28;20175;-73
2022/11/19 09:25:34;;;;;;;9.70;8.70;;;6.70;99.90;;;;;;4995165;28;20583;-74
2022/11/19 09:28:00;;;;;;;10.20;8.97;;;6.70;99.90;;;;;;4993488;28;20777;-75
2022/11/19 09:30:49;;;;;;;10.90;9.80;;;6.70;99.90;;;;;;4994138;28;20541;-75
2022/11/19 09:33:40;;;;;;;9.57;8.57;;;6.70;99.90;;;;;;5001439;28;20191;-75
2022/11/19 09:36:10;;;;;;;10.48;9.38;;;6.70;99.90;;;;;;4992235;28;20273;-75
2022/11/19 09:38:38;;;;;;;10.00;8.88;;;6.70;99.90;;;;;;4992211;28;20632;-74
2022/11/19 09:41:31;;;;;;;8.70;7.80;;;6.60;99.90;;;;;;4992066;28;20202;-75
2022/11/19 09:43:57;;;;;;;9.98;8.98;;;6.70;99.90;;;;;;5001191;28;20284;-75
2022/11/19 09:46:34;;;;;;;9.33;8.43;;;6.80;99.90;;;;;;5011720;28;20853;-75
2022/11/19 09:49:07;;;;;;;9.13;7.63;;;6.90;99.90;;;;;;5011888;28;20275;-75
2022/11/19 09:51:36;;;;;;;8.52;7.68;;;6.90;99.90;;;;;;5008296;28;20181;-74
2022/11/19 09:54:06;;;;;;;9.07;7.97;;;6.90;99.90;;;;;;4974273;28;20281;-74
2022/11/19 09:56:41;;;;;;;9.35;8.35;;;7.00;99.90;;;;;;4974487;28;20163;-74
2022/11/19 09:59:23;;;;;;;8.45;7.55;;;7.00;99.90;;;;;;4992005;28;20173;-75
2022/11/19 10:01:48;;;;;;;10.90;9.10;;;7.00;99.90;;;;;;4991479;28;20268;-75
2022/11/19 10:04:19;;;;;;;9.67;8.00;;;7.00;99.90;;;;;;4991805;28;20223;-74
2022/11/19 10:06:54;;;;;;;10.82;9.70;;;7.00;99.90;;;;;;4991945;28;21074;-75
2022/11/19 10:09:50;;;;;;;9.07;8.07;;;7.00;99.90;;;;;;4991688;28;20170;-74
2022/11/19 10:12:40;;;;;;;8.65;7.28;;;6.90;99.90;;;;;;4993580;28;20261;-75
2022/11/19 10:15:35;;;;;;;7.53;6.60;;;6.90;99.90;;;;;;4990394;28;20187;-75
2022/11/19 10:18:03;;;;;;;8.77;7.88;;;7.00;99.90;;;;;;4991355;28;20689;-75
2022/11/19 10:20:50;;;;;;;10.45;8.40;;;7.00;99.90;;;;;;4959854;28;20678;-74
2022/11/19 10:23:22;;;;;;;9.13;7.80;;;7.00;99.90;;;;;;4975231;28;20187;-74
2022/11/19 10:25:52;;;;;;;9.55;8.65;;;7.00;99.90;;;;;;4975842;28;20171;-75
2022/11/19 10:28:26;;;;;;;8.90;8.00;;;7.00;99.90;;;;;;4959402;28;20199;-75
2022/11/19 10:31:34;;;;;;;8.52;7.63;;;7.00;99.90;;;;;;4960515;28;20636;-75
2022/11/19 10:34:24;;;;;;;7.97;7.15;;;7.00;99.90;;;;;;4988615;28;20679;-75
2022/11/19 10:37:12;;;;;;;8.63;7.72;;;7.10;99.90;;;;;;4992988;28;20171;-75
2022/11/19 10:39:45;;;;;;;10.18;8.88;;;7.10;99.90;;;;;;4992234;28;20302;-75
2022/11/19 10:42:16;;;;;;;10.30;7.70;;;7.10;99.90;;;;;;4989802;28;20648;-75
2022/11/19 10:45:03;;;;;;;9.25;8.20;;;7.10;99.90;;;;;;5005466;28;20214;-75
2022/11/19 10:47:54;;;;;;;8.50;7.60;;;7.20;99.90;;;;;;4992777;28;20632;-75
2022/11/19 10:50:24;;;;;;;11.15;8.60;;;7.20;99.90;;;;;;4992395;28;20167;-75
2022/11/19 10:52:55;;;;;;;10.15;8.73;;;7.20;99.90;;;;;;4992269;28;20253;-75
2022/11/19 10:55:40;;;;;;;9.45;7.82;;;7.20;99.90;;;;;;5007388;28;20178;-75
2022/11/19 10:58:25;;;;;;;8.95;7.38;;;7.20;99.90;;;;;;4992900;28;20829;-75
2022/11/19 11:00:56;;;;;;;8.57;7.68;;;7.20;99.90;;;;;;4992421;28;20232;-75
2022/11/19 11:03:24;;;;;;;10.10;8.40;;;7.20;99.90;;;;;;4992686;28;20190;-74
2022/11/19 11:05:56;;;;;;;8.07;7.25;;;7.30;99.90;;;;;;4992466;28;20647;-74
2022/11/19 11:08:22;;;;;;;8.15;7.00;;;7.20;99.90;;;;;;4970001;28;20224;-75
2022/11/19 11:10:50;;;;;;;7.90;7.13;;;7.30;99.90;;;;;;5005016;28;20198;-74
2022/11/19 11:16:24;;;;;;;8.75;6.65;;;7.30;99.90;;;;;;4992419;28;20167;-75
2022/11/19 11:18:52;;;;;;;7.68;6.80;;;7.40;99.90;;;;;;4992074;28;20170;-75
2022/11/19 11:21:35;;;;;;;8.85;7.13;;;7.40;99.90;;;;;;4991003;28;20183;-75
2022/11/19 11:24:03;;;;;;;7.82;6.30;;;7.40;99.90;;;;;;4987487;28;20681;-75
2022/11/19 11:26:32;;;;;;;6.95;6.25;;;7.50;99.90;;;;;;5002174;28;20183;-75
2022/11/19 11:29:00;;;;;;;8.75;7.43;;;7.50;99.90;;;;;;4991712;28;20182;-75
2022/11/19 11:31:44;;;;;;;8.48;7.32;;;7.50;99.90;;;;;;4991734;28;20175;-75
2022/11/19 11:34:29;;;;;;;9.05;7.72;;;7.40;99.90;;;;;;4985895;28;20550;-75
2022/11/19 11:36:57;;;;;;;9.52;7.65;;;7.50;99.90;;;;;;4994051;28;20257;-75
2022/11/19 11:39:35;;;;;;;9.05;7.38;;;7.60;99.90;;;;;;4976511;28;20187;-75
2022/11/19 11:42:01;;;;;;;7.35;5.65;;;7.60;99.90;;;;;;4991745;28;20178;-75
2022/11/19 11:44:35;;;;;;;7.68;6.88;;;7.70;99.90;;;;;;4974157;28;20207;-75
2022/11/19 11:47:15;;;;;;;6.38;5.78;;;7.70;99.90;;;;;;4992168;28;20245;-75
2022/11/19 11:49:44;;;;;;;9.18;6.05;;;7.70;99.90;;;;;;4991706;28;20509;-74
2022/11/19 11:52:38;;;;;;;7.18;6.40;;;7.80;99.90;;;;;;4992135;28;20582;-75
2022/11/19 11:55:28;;;;;;;7.70;6.50;;;7.80;99.90;;;;;;4991824;28;20190;-76
2022/11/19 11:58:04;;;;;;;8.85;6.95;;;7.90;99.90;;;;;;4972982;28;20182;-75
2022/11/19 12:00:35;;;;;;;7.60;6.60;;;7.90;99.90;;;;;;4972787;28;20171;-75
2022/11/19 12:03:09;;;;;;;8.02;6.63;;;7.90;99.90;;;;;;4987055;28;20260;-74
2022/11/19 12:05:56;;;;;;;8.30;7.30;;;7.90;99.90;;;;;;4996171;28;20176;-74
2022/11/19 12:08:39;;;;;;;7.78;6.45;;;7.90;99.90;;;;;;4994750;28;20230;-73
2022/11/19 12:11:14;;;;;;;7.50;6.80;;;8.00;99.90;;;;;;4997298;28;20167;-74
2022/11/19 12:13:59;;;;;;;9.57;8.05;;;8.00;99.90;;;;;;5007138;28;20195;-74
2022/11/19 12:16:31;;;;;;;9.27;8.07;;;8.10;99.90;;;;;;4999122;28;20167;-75
2022/11/19 12:19:17;;;;;;;9.10;8.20;;;8.10;99.90;;;;;;4995912;28;20183;-74
2022/11/19 12:21:49;;;;;;;7.15;6.20;;;8.10;99.90;;;;;;4994078;28;20167;-75
2022/11/19 12:24:33;;;;;;;7.82;6.88;;;8.10;99.90;;;;;;4995157;28;20183;-74
2022/11/19 12:27:25;;;;;;;9.00;7.82;;;8.10;99.90;;;;;;4993030;28;20289;-74
2022/11/19 12:30:17;;;;;;;9.05;8.15;;;8.10;99.90;;;;;;4953887;28;20183;-74
2022/11/19 12:33:20;;;;;;;7.63;6.43;;;8.10;99.90;;;;;;4993531;28;20176;-73
2022/11/19 12:36:14;;;;;;;9.93;7.50;;;8.10;99.90;;;;;;4993799;28;20225;-74
2022/11/19 12:39:01;;;;;;;7.15;6.45;;;8.20;99.90;;;;;;4993633;28;20258;-74
2022/11/19 12:41:44;;;;;;;8.00;7.00;;;8.30;99.90;;;;;;4993491;28;20703;-73
2022/11/19 12:44:28;;;;;;;7.90;6.93;;;8.30;99.90;;;;;;4993096;28;20853;-73
2022/11/19 12:47:33;;;;;;;9.60;6.68;;;8.20;99.90;;;;;;4992340;28;20264;-73
2022/11/19 12:50:30;;;;;;;7.90;6.65;;;8.20;99.90;;;;;;4976082;28;20187;-73
2022/11/19 12:53:05;;;;;;;7.57;6.57;;;8.30;99.90;;;;;;4987035;28;20273;-73
2022/11/19 12:55:45;;;;;;;8.95;8.05;;;8.30;99.90;;;;;;4993252;28;20177;-73
2022/11/19 12:58:25;;;;;;;9.70;7.90;;;8.30;99.90;;;;;;4992703;28;20174;-73
2022/11/19 13:00:59;;;;;;;8.15;7.32;;;8.20;99.90;;;;;;4980499;28;20280;-71
2022/11/19 13:04:03;;;;;;;8.32;7.45;;;8.20;99.90;;;;;;4992580;28;20681;-71
2022/11/19 13:06:52;;;;;;;8.38;7.55;;;8.20;99.90;;;;;;4971906;28;20213;-71
2022/11/19 13:09:31;;;;;;;9.50;8.60;;;8.20;99.90;;;;;;4992928;28;20512;-71
2022/11/19 13:12:11;;;;;;;9.02;7.93;;;8.20;99.90;;;;;;4992762;28;20193;-71
2022/11/19 13:14:44;;;;;;;9.18;7.57;;;8.20;99.90;;;;;;4992130;28;20202;-71
2022/11/19 13:17:28;;;;;;;9.00;7.20;;;8.20;99.90;;;;;;4992725;28;20259;-71
2022/11/19 13:20:01;;;;;;;8.65;7.78;;;8.10;99.90;;;;;;4992575;28;20171;-73
2022/11/19 13:22:35;;;;;;;9.77;7.97;;;8.10;99.90;;;;;;4992325;28;20187;-72
2022/11/19 13:25:23;;;;;;;7.78;7.00;;;8.10;99.90;;;;;;4992312;28;20675;-70
2022/11/19 13:27:51;;;;;;;9.18;7.72;;;8.00;99.90;;;;;;4992539;28;20213;-71
2022/11/19 13:30:23;;;;;;;9.07;8.18;;;8.00;99.90;;;;;;4992275;28;20284;-71
2022/11/19 13:33:16;;;;;;;9.20;8.10;;;8.00;99.90;;;;;;4992490;28;20243;-71
2022/11/19 13:35:50;;;;;;;7.80;6.80;;;8.00;99.90;;;;;;4992128;28;20164;-71
2022/11/19 13:38:27;;;;;;;9.98;8.70;;;7.90;99.90;;;;;;4992593;28;20171;-71